Time;durP1;ratioP1;P1;durP2;ratioP2;P2;SDS_P1;SDS_P2;PMS_P1;PMS_P2;Temp;Humidity;BMP_temperature;BMP_pressure;BME280_temperature;BME280_humidity;BME280_pressure;Samples;Min_cycle;Max_cycle;Signal;HPM_P1;HPM_P2
2021/12/14 20:24:57;;;;;;;38.50;22.35;;;;;;;;;;5098194;27;20114;-69
2021/12/14 20:27:26;;;;;;;39.10;23.50;;;;;;;;;;5099412;28;20042;-69
2021/12/14 20:29:54;;;;;;;39.70;24.38;;;;;;;;;;5093525;28;20035;-68
2021/12/14 20:32:20;;;;;;;33.95;21.98;;;;;;;;;;5097118;28;20027;-70
2021/12/14 20:34:52;;;;;;;37.80;23.58;;;;;;;;;;5103999;28;20035;-68
2021/12/14 20:37:20;;;;;;;40.95;24.55;;;;;;;;;;5106449;28;20098;-67
2021/12/14 20:39:55;;;;;;;51.65;28.17;;;;;;;;;;5108643;28;20153;-68
2021/12/14 20:42:34;;;;;;;47.88;27.88;;;;;;;;;;5108116;28;20016;-69
2021/12/14 20:47:31;;;;;;;;;;;;;;;;;;5101569;28;20342;-68
2021/12/14 20:49:58;;;;;;;46.50;26.83;;;;;;;;;;5088948;28;20530;-67
2021/12/14 20:52:26;;;;;;;48.03;27.30;;;;;;;;;;5093599;28;20015;-67
2021/12/14 20:54:58;;;;;;;56.60;29.95;;;;;;;;;;5091997;28;20397;-67
2021/12/14 20:57:26;;;;;;;60.72;32.42;;;;;;;;;;5114742;28;20513;-69
2021/12/14 20:59:52;;;;;;;56.25;30.10;;;;;;;;;;5109071;28;20031;-67
2021/12/14 21:02:19;;;;;;;54.28;29.27;;;;;;;;;;5108487;28;20027;-68
2021/12/14 21:04:48;;;;;;;57.47;32.03;;;;;;;;;;5110642;28;20044;-67
2021/12/14 21:07:17;;;;;;;51.55;29.73;;;;;;;;;;5113279;28;20024;-67
2021/12/14 21:09:45;;;;;;;64.88;33.72;;;;;;;;;;5116233;28;20040;-68
2021/12/14 21:12:14;;;;;;;91.80;43.38;;;;;;;;;;5108611;28;20023;-68
2021/12/14 21:14:43;;;;;;;108.95;49.92;;;;;;;;;;5106604;28;20532;-67
2021/12/14 21:17:11;;;;;;;123.65;53.53;;;;;;;;;;5099685;28;20027;-67
2021/12/14 21:19:42;;;;;;;92.20;42.83;;;;;;;;;;5106105;28;20028;-68
2021/12/14 21:22:22;;;;;;;71.63;36.10;;;;;;;;;;5107729;28;20119;-69
2021/12/14 21:24:51;;;;;;;60.65;31.65;;;;;;;;;;5113260;28;20062;-68
2021/12/14 21:27:20;;;;;;;65.97;34.28;;;;;;;;;;5107050;28;20081;-68
2021/12/14 21:29:58;;;;;;;57.47;28.40;;;;;;;;;;5108958;28;20027;-68
2021/12/14 21:32:26;;;;;;;66.22;32.88;;;;;;;;;;5103790;28;20032;-68
2021/12/14 21:34:53;;;;;;;59.10;30.92;;;;;;;;;;5105115;28;20044;-68
2021/12/14 21:37:20;;;;;;;62.13;30.52;;;;;;;;;;5097717;28;20060;-67
2021/12/14 21:39:51;;;;;;;53.80;29.23;;;;;;;;;;5092708;28;20085;-68
2021/12/14 21:42:33;;;;;;;51.13;27.48;;;;;;;;;;5088791;28;20114;-67
2021/12/14 21:45:01;;;;;;;48.25;24.83;;;;;;;;;;5090468;28;20035;-68
2021/12/14 21:47:28;;;;;;;46.22;24.58;;;;;;;;;;5092853;28;20024;-69
2021/12/14 21:49:57;;;;;;;43.13;24.83;;;;;;;;;;5091345;28;20012;-68
2021/12/14 21:52:25;;;;;;;44.08;24.50;;;;;;;;;;5092652;28;20035;-69
2021/12/14 21:54:59;;;;;;;97.00;38.60;;;;;;;;;;5098821;28;20454;-69
2021/12/14 21:57:26;;;;;;;128.27;57.00;;;;;;;;;;5093832;28;20784;-68
2021/12/14 21:59:55;;;;;;;117.40;50.67;;;;;;;;;;5097379;28;20024;-68
2021/12/14 22:02:22;;;;;;;97.85;45.60;;;;;;;;;;5089189;28;20487;-67
2021/12/14 22:04:48;;;;;;;73.38;36.20;;;;;;;;;;5086058;28;20038;-68
2021/12/14 22:07:15;;;;;;;68.95;33.83;;;;;;;;;;5090575;28;20077;-68
2021/12/14 22:09:44;;;;;;;57.53;30.17;;;;;;;;;;5087171;28;20027;-68
2021/12/14 22:12:14;;;;;;;56.47;28.80;;;;;;;;;;5092154;28;20115;-70
2021/12/14 22:14:41;;;;;;;55.95;31.42;;;;;;;;;;5097407;28;20016;-69
2021/12/14 22:17:07;;;;;;;52.30;29.63;;;;;;;;;;5093510;28;20032;-68
2021/12/14 22:19:38;;;;;;;44.58;27.35;;;;;;;;;;5092699;28;20028;-69
2021/12/14 22:22:05;;;;;;;43.75;25.48;;;;;;;;;;5092546;28;20036;-69
2021/12/14 22:24:32;;;;;;;41.00;24.08;;;;;;;;;;5093593;28;20062;-70
2021/12/14 22:26:58;;;;;;;41.50;25.63;;;;;;;;;;5091433;28;20026;-69
2021/12/14 22:29:24;;;;;;;44.03;25.35;;;;;;;;;;5090445;28;20111;-70
2021/12/14 22:31:51;;;;;;;45.92;25.77;;;;;;;;;;5089615;28;20024;-70
2021/12/14 22:34:17;;;;;;;36.53;22.77;;;;;;;;;;5086841;28;20037;-69
2021/12/14 22:36:43;;;;;;;38.33;22.88;;;;;;;;;;5095208;28;20502;-69
2021/12/14 22:39:11;;;;;;;39.15;23.55;;;;;;;;;;5091170;28;20076;-69
2021/12/14 22:44:23;;;;;;;40.10;24.65;;;;;;;;;;5093006;28;20127;-70
2021/12/14 22:46:52;;;;;;;46.42;26.17;;;;;;;;;;5089644;28;20565;-70
2021/12/14 22:49:37;;;;;;;37.30;23.13;;;;;;;;;;5090273;28;20064;-70
2021/12/14 22:52:07;;;;;;;36.90;22.17;;;;;;;;;;5098675;28;20055;-70
2021/12/14 22:54:34;;;;;;;26.38;16.08;;;;;;;;;;5093733;28;20054;-70
2021/12/14 22:57:01;;;;;;;34.05;20.65;;;;;;;;;;5091450;28;20035;-70
2021/12/14 22:59:27;;;;;;;37.90;21.63;;;;;;;;;;5090047;28;20028;-70
